Terminal Aerodrome Forecast
Issued by NWS

Home | Current Version | Previous Version | Text Only | Print | Product List | Glossary On
Versions: 1 2 3 4 5 6 7 8 9 10 11 12
000
FTUS43 KMPX 032323
TAFRWF
TAF
KRWF 032323Z 0400/0424 VRB04KT P6SM SCT250
      TEMPO 0403/0406 6SM HZ
     FM040600 VRB04KT 6SM HZ SCT250
     FM041500 20008KT P6SM FEW070 SCT250=

USA.gov is the U.S. government's official web portal to all federal, state and local government web resources and services.